METAR

METAR LDZA 121600Z 05011KT 9999 -DZ OVC011 09/08 Q1001 BECMG 05005KT =
METAR COR LDSP 121600Z 11021G33KT 9999 FEW027 BKN040 18/13 Q0999 NOSIG=
METAR COR LDDU 121600Z 13030G41KT 9999 SCT030 BKN043 17/12 Q1005 TEMPO 12020G30KT =
METAR LDZD 121600Z 13026G37KT 100V160 9999 FEW025 SCT040 BKN075 18/12 Q0997 NOSIG =
METAR LDPL 121600Z 05019G29KT 2300 +RA FEW010 BKN020 OVC027 11/11 Q0993 BECMG 12018G28KT 5000 RA=
METAR LDOS 121600Z 13014KT CAVOK 16/12 Q1003=
METAR LDRI 121600Z 11011KT 060V150 9999 BKN030 15/09 Q0995=

TAF

TAF LDZA 121125Z 1212/1312 03010KT 8000 -RA BKN005 OVC040
                 TX11/1311Z TN05/1223Z
           TEMPO 1212/1218 3000 RA BR
          PROB40 1212/1306 SCT005 OVC030
           BECMG 1217/1220 VRB02KT 2000 MIFG BR
          PROB40 1219/1304 0200 FG VV001
           BECMG 1306/1309 11010KT 6000 NSW SCT010 BKN020=
TAF LDSP 121125Z 1212/1312 11018G28KT 9999 -RA SCT015 BKN035
                 TX18/1212Z TN14/1305Z
           TEMPO 1212/1216 11025G35KT
    PROB40 TEMPO 1212/1312 4000 TSRA FEW025CB BKN030=
TAF LDDU 121125Z 1212/1312 14025G35KT 9999 RA SCT015 BKN030
                 TX17/1212Z TN15/1305Z
           TEMPO 1212/1221 14035G45KT
    PROB30 TEMPO 1212/1221 3000 TSRA BKN010 SCT020CB
    PROB40 TEMPO 1308/1312 4000 TSRA SCT010 FEW020CB BKN025=
TAF LDZD 121125Z 1212/1312 12020KT 9999 BKN030
                 TX16/1214Z TN14/1304Z
           TEMPO 1212/1218 4000 RA
           TEMPO 1212/1306 14025G35KT
    PROB30 TEMPO 1213/1306 TSRA FEW020CB BKN025
    PROB40 TEMPO 1306/1312 4000 TSRA SCT020CB OVC025=
TAF COR LDPL 121129Z 1212/1312 06016KT 9999 SCT010 BKN030
                     TX16/1218Z TN12/1212Z
               TEMPO 1212/1218 4000 RA BKN010 OVC020
               BECMG 1215/1217 12016KT
        PROB30 TEMPO 1215/1306 12020G30KT TSRA SCT015CB BKN020
        PROB40 TEMPO 1306/1312 4000 TSRA SCT015CB OVC020
               BECMG 1309/1311 27015KT=
TAF LDOS 121125Z 1212/1312 10006KT 9999 SCT030
                 TX15/1311Z TN12/1212Z
           BECMG 1212/1214 14015KT
           TEMPO 1214/1312 14018G30KT=
TAF LDRI 121125Z 1212/1312 06010KT 9999 SCT010 BKN030
                 TX16/1218Z TN12/1212Z
           TEMPO 1212/1218 RA BKN010 OVC030
           BECMG 1214/1216 14015KT
           TEMPO 1214/1300 14018G30KT
    PROB30 TEMPO 1218/1312 TSRA FEW020CB BKN025=

SIGMET

LDZO SIGMET 9 VALID 121500/121700 LDZA-
LDZO ZAGREB FIR SEV TURB FCST WI N4527 E01507 - N4428 E01323 - N4330
E01431 - N4221 E01613 - N4126 E01819 - N4225 E01831 - N4527 E01507
SFC/FL150 STNR NC=

AIRMET

LDZO AIRMET 26 VALID 121400/121700 LDZA-
LDZO ZAGREB FIR MT OBSC OBS WI N4555 E01737 - N4632 E01633 - N4520
E01343 - N4504 E01453 - N4433 E01454 - N4222 E01831 - N4447 E01552 -
N4555 E01737 ABV 2000FT STNR NC=
LDZO AIRMET 27 VALID 121400/121700 LDZA-
LDZO ZAGREB FIR SFC WIND 120/35KT FCST WI N4250 E01520 - N4126
E01820 - N4226 E01830 - N4329 E01712 - N4420 E01538 - N4528 E01443 -
N4433 E01317 - N4250 E01520 STNR NC=
LDZO AIRMET 28 VALID 121506/121700 LDZA-
LDZO ZAGREB FIR MOD TURB FCST E OF LINE N4557 E01727 - N4507 E01814
ABV 2000FT STNR NC=

Napomena

Ukoliko se brzina i smjer vjetra ne mogu odrediti zbog privremenog kvara sustava/indikatora,
informacija o vjetru u METAR izvješću bit će prikazana kao "/////KT".

 

Disclaimer

 

In case of temporary system/sensor failure, wind speed and direction data will be represented as "/////KT" in METAR report.

 

If you cannot log in with your user account, please contact stjepko.jancijev@crocontrol.hr.
Specifically, the website deactivates user accounts that have not been used for more than 365 days, so they must be reactivated.
 

         

      Politika MET podataka      

 

Ukoliko se svojim korisničkim računom ne možete logirati na web stranicu, molim vas da se obratite na stjepko.jancijev@crocontrol.hr.

Naime, web stranica deaktivira korisničke račune koji nisu korišteni više od 365 dana te ih je potrebno ponovno aktivirati.